KWRI/WRI METAR and TAF weather

Enter ICAO airport designator
Station Type Date Time Source
KWRI METAR 2019/05/20 09:56 UTC NOAA

KWRI 200956Z AUTO 21007KT 10SM BKN130 20/18 A2983 RMK AO2 SLP100 T01990180 $


Station Type Date Time Source
KWRI Decoded METAR 2019/05/20 09:56 UTC NOAA

Mcguire Air Force Base, NJ, United States (KWRI) 40-01N 074-36W
May 20, 2019 - 05:56 AM EDT / 2019.05.20 0956 UTC
Wind: from the SSW (210 degrees) at 8 MPH (7 KT):0
Visibility: 10 mile(s):0
Sky conditions: mostly cloudy
Temperature: 67.8 F (19.9 C)
Dew Point: 64.4 F (18.0 C)
Relative Humidity: 88%
Pressure (altimeter): 29.83 in. Hg (1010 hPa)
ob: KWRI 200956Z AUTO 21007KT 10SM BKN130 20/18 A2983 RMK AO2 SLP100 T01990180
cycle: 10

Station Type Date Time Source
KWRI TAF 2019/05/20 10:06 UTC NOAA

TAF KWRI 201000Z 2010/2116 20012KT 9999 BKN190 QNH2983INS
BECMG 2013/2014 23015G25KT 9999 SCT060 QNH2974INS
BECMG 2019/2020 24015G25KT 8000 -SHRA BKN040 QNH2972INS
TEMPO 2020/2024 25020G30KT 4800 -TSRA BKN035CB
BECMG 2100/2101 22009KT 9999 NSW FEW040 QNH2979INS
BECMG 2103/2104 24009KT 9999 SKC QNH2980INS
BECMG 2110/2111 30012G18KT 9999 FEW030 QNH2993INS TX31/2019Z TN14/2109Z

Example: see airport list